createdAt,value
2018-12-25T00:00:04.215Z,14.20
2018-12-25T00:02:32.677Z,14.10
2018-12-25T00:05:01.259Z,14.20
2018-12-25T00:07:29.674Z,14.40
2018-12-25T00:09:58.014Z,14.40
2018-12-25T00:12:26.322Z,14.40
2018-12-25T00:14:54.816Z,14.30
2018-12-25T00:17:24.400Z,14.40
2018-12-25T00:19:52.791Z,14.10
2018-12-25T00:22:20.966Z,14.00
2018-12-25T00:24:49.314Z,14.00
2018-12-25T00:27:17.581Z,14.10
2018-12-25T00:29:46.003Z,14.10
2018-12-25T00:32:14.569Z,14.10
2018-12-25T00:34:42.944Z,14.20
2018-12-25T00:37:11.231Z,14.40
2018-12-25T00:39:39.309Z,14.30
2018-12-25T00:42:07.786Z,14.10
2018-12-25T00:44:36.157Z,14.10
2018-12-25T00:47:04.568Z,14.20
2018-12-25T00:49:32.985Z,14.10
2018-12-25T00:52:01.507Z,14.00
2018-12-25T00:54:29.944Z,13.90
2018-12-25T00:56:58.338Z,13.90
2018-12-25T00:59:26.803Z,13.90
2018-12-25T01:01:55.422Z,13.80
2018-12-25T01:04:23.788Z,14.00
2018-12-25T01:06:52.184Z,14.00
2018-12-25T01:09:20.531Z,13.80
2018-12-25T01:11:49.103Z,13.90
2018-12-25T01:14:17.812Z,13.90
2018-12-25T01:16:46.178Z,13.60
2018-12-25T01:19:22.939Z,13.50
2018-12-25T01:21:44.699Z,13.40
2018-12-25T01:24:13.177Z,13.30
2018-12-25T01:26:41.726Z,13.40
2018-12-25T01:29:10.244Z,13.40
2018-12-25T01:31:38.678Z,13.50
2018-12-25T01:34:07.168Z,13.70
2018-12-25T01:36:35.796Z,13.60
2018-12-25T01:39:06.374Z,13.30
2018-12-25T01:41:34.964Z,13.30
2018-12-25T01:44:03.372Z,13.30
2018-12-25T01:46:32.821Z,13.30
2018-12-25T01:49:01.431Z,13.20
2018-12-25T01:51:29.944Z,13.20
2018-12-25T01:53:58.507Z,12.90
2018-12-25T01:56:27.178Z,13.10
2018-12-25T01:58:55.616Z,13.10
2018-12-25T02:01:24.036Z,13.10
2018-12-25T02:03:52.519Z,13.10
2018-12-25T02:06:20.811Z,12.90
2018-12-25T02:08:49.380Z,12.90
2018-12-25T02:11:17.753Z,12.80
2018-12-25T02:13:46.077Z,12.90
2018-12-25T02:16:14.468Z,13.00
2018-12-25T02:18:42.988Z,13.00
2018-12-25T02:21:11.399Z,12.90
2018-12-25T02:23:39.746Z,12.90
2018-12-25T02:26:08.328Z,12.80
2018-12-25T02:28:36.749Z,12.80
2018-12-25T02:31:05.291Z,12.90
2018-12-25T02:33:33.790Z,12.80
2018-12-25T02:36:02.353Z,12.90
2018-12-25T02:38:30.974Z,12.70
2018-12-25T02:40:59.239Z,12.70
2018-12-25T02:43:27.696Z,12.50
2018-12-25T02:45:56.191Z,12.40
2018-12-25T02:48:24.578Z,12.30
2018-12-25T02:50:52.988Z,12.40
2018-12-25T02:53:21.307Z,12.20
2018-12-25T02:55:49.786Z,12.30
2018-12-25T02:58:18.201Z,12.20
2018-12-25T03:00:46.715Z,12.30
2018-12-25T03:03:15.217Z,12.30
2018-12-25T03:05:43.541Z,12.40
2018-12-25T03:08:11.995Z,12.40
2018-12-25T03:10:40.531Z,12.30
2018-12-25T03:13:09.333Z,12.20
2018-12-25T03:15:39.196Z,12.10
2018-12-25T03:18:07.721Z,12.10
2018-12-25T03:20:36.405Z,12.20
2018-12-25T03:23:06.205Z,12.20
2018-12-25T03:25:34.994Z,12.20
2018-12-25T03:28:03.476Z,12.20
2018-12-25T03:30:31.891Z,12.10
2018-12-25T03:33:00.203Z,12.10
2018-12-25T03:35:28.859Z,12.00
2018-12-25T03:37:57.359Z,12.10
2018-12-25T03:40:25.828Z,12.10
2018-12-25T03:42:54.224Z,12.20
2018-12-25T03:45:22.705Z,12.10
2018-12-25T03:47:50.981Z,11.90
2018-12-25T03:50:19.334Z,12.10
2018-12-25T03:52:47.981Z,12.20
2018-12-25T03:55:16.195Z,12.10
2018-12-25T03:57:44.767Z,12.10
2018-12-25T04:00:13.255Z,11.90
2018-12-25T04:02:41.569Z,12.00
2018-12-25T04:05:09.933Z,12.00
2018-12-25T04:07:38.419Z,12.00
2018-12-25T04:10:06.894Z,11.80
2018-12-25T04:12:35.444Z,11.80
2018-12-25T04:15:04.444Z,11.90
2018-12-25T04:17:32.919Z,11.60
2018-12-25T04:20:01.501Z,11.80
2018-12-25T04:22:29.907Z,11.60
2018-12-25T04:24:58.189Z,11.70
2018-12-25T04:27:26.672Z,11.80
2018-12-25T04:29:55.148Z,11.70
2018-12-25T04:32:23.407Z,11.70
2018-12-25T04:34:51.702Z,11.50
2018-12-25T04:37:20.247Z,11.70
2018-12-25T04:39:48.666Z,11.80
2018-12-25T04:42:17.105Z,11.60
2018-12-25T04:44:45.621Z,11.60
2018-12-25T04:47:13.948Z,11.60
2018-12-25T04:49:42.162Z,11.90
2018-12-25T04:52:10.618Z,11.70
2018-12-25T04:54:39.032Z,11.80
2018-12-25T04:57:07.405Z,11.80
2018-12-25T04:59:35.848Z,11.80
2018-12-25T05:02:04.240Z,11.70
2018-12-25T05:04:32.744Z,11.60
2018-12-25T05:07:01.192Z,11.60
2018-12-25T05:09:29.570Z,11.70
2018-12-25T05:11:58.088Z,11.70
2018-12-25T05:14:26.429Z,11.60
2018-12-25T05:16:55.114Z,11.60
2018-12-25T05:19:23.545Z,11.50
2018-12-25T05:21:52.035Z,11.50
2018-12-25T05:24:20.195Z,11.40
2018-12-25T05:26:48.729Z,11.30
2018-12-25T05:29:17.209Z,11.40
2018-12-25T05:31:45.621Z,11.20
2018-12-25T05:34:14.169Z,11.10
2018-12-25T05:36:42.801Z,11.10
2018-12-25T05:39:11.163Z,11.20
2018-12-25T05:41:39.442Z,11.10
2018-12-25T05:44:08.206Z,11.20
2018-12-25T05:46:36.708Z,11.20
2018-12-25T05:49:05.195Z,11.20
2018-12-25T05:51:33.872Z,11.10
2018-12-25T05:54:02.260Z,11.10
2018-12-25T05:56:30.518Z,11.10
2018-12-25T05:58:59.079Z,11.20
2018-12-25T06:01:27.493Z,11.30
2018-12-25T06:03:55.980Z,11.20
2018-12-25T06:06:43.461Z,11.30
2018-12-25T06:09:12.045Z,11.30
2018-12-25T06:11:40.458Z,11.30
2018-12-25T06:14:09.017Z,11.20
2018-12-25T06:16:37.307Z,11.20
2018-12-25T06:19:05.866Z,11.10
2018-12-25T06:21:34.425Z,11.20
2018-12-25T06:24:02.668Z,11.30
2018-12-25T06:26:31.033Z,11.30
2018-12-25T06:28:59.477Z,11.20
2018-12-25T06:31:28.061Z,11.50
2018-12-25T06:33:56.745Z,12.10
2018-12-25T06:36:25.330Z,13.00
2018-12-25T06:38:53.640Z,13.50
2018-12-25T06:41:22.036Z,14.10
2018-12-25T06:43:50.361Z,14.70
2018-12-25T06:46:18.768Z,14.50
2018-12-25T06:48:47.140Z,14.70
2018-12-25T06:51:15.494Z,15.00
2018-12-25T06:53:44.007Z,15.80
2018-12-25T06:56:12.395Z,16.10
2018-12-25T06:58:40.530Z,16.50
2018-12-25T07:01:08.849Z,16.50
2018-12-25T07:03:37.179Z,17.30
2018-12-25T07:06:05.699Z,17.50
2018-12-25T07:08:33.985Z,18.20
2018-12-25T07:11:02.244Z,17.70
2018-12-25T07:13:30.797Z,18.40
2018-12-25T07:15:59.091Z,18.60
2018-12-25T07:18:27.375Z,18.40
2018-12-25T07:20:55.828Z,18.70
2018-12-25T07:23:24.228Z,19.10
2018-12-25T07:25:52.591Z,19.10
2018-12-25T07:28:21.061Z,19.60
2018-12-25T07:30:49.579Z,19.40
2018-12-25T07:33:17.940Z,19.00
2018-12-25T07:35:46.305Z,19.40
2018-12-25T07:38:14.595Z,19.40
2018-12-25T07:40:43.052Z,18.70
2018-12-25T07:43:11.635Z,19.00
2018-12-25T07:45:40.044Z,19.70
2018-12-25T07:48:08.415Z,19.70
2018-12-25T07:50:36.776Z,20.20
2018-12-25T07:53:05.180Z,20.30
2018-12-25T07:55:33.543Z,20.60
2018-12-25T07:58:02.210Z,19.50
2018-12-25T08:00:30.902Z,19.30
2018-12-25T08:02:59.273Z,19.10
2018-12-25T08:05:27.659Z,19.30
2018-12-25T08:07:55.663Z,19.20
2018-12-25T08:10:24.046Z,20.20
2018-12-25T08:12:52.477Z,20.50
2018-12-25T08:15:21.061Z,20.50
2018-12-25T08:17:49.439Z,19.80
2018-12-25T08:20:18.126Z,20.20
2018-12-25T08:22:46.656Z,20.10
2018-12-25T08:25:15.012Z,20.30
2018-12-25T08:27:43.572Z,20.50
2018-12-25T08:30:12.035Z,19.80
2018-12-25T08:32:40.367Z,19.70
2018-12-25T08:35:09.110Z,19.90
2018-12-25T08:37:37.538Z,20.30
2018-12-25T08:40:05.922Z,21.00
2018-12-25T08:42:33.975Z,21.50
2018-12-25T08:45:02.417Z,21.90
2018-12-25T08:47:30.830Z,22.10
2018-12-25T08:49:59.322Z,22.20
2018-12-25T08:52:27.754Z,22.70
2018-12-25T08:54:56.278Z,22.70
2018-12-25T08:57:24.687Z,22.70
2018-12-25T08:59:58.457Z,22.70
2018-12-25T09:02:26.986Z,22.30
2018-12-25T09:04:55.516Z,22.30
2018-12-25T09:07:23.884Z,22.20
2018-12-25T09:09:52.342Z,22.40
2018-12-25T09:12:20.660Z,22.20
2018-12-25T09:14:49.198Z,22.60
2018-12-25T09:17:17.715Z,21.00
2018-12-25T09:19:46.080Z,21.50
2018-12-25T09:22:14.368Z,21.40
2018-12-25T09:24:42.723Z,21.20
2018-12-25T09:27:11.294Z,19.20
2018-12-25T09:29:39.813Z,17.70
2018-12-25T09:32:08.356Z,17.50
2018-12-25T09:34:36.838Z,17.60
2018-12-25T09:37:05.522Z,16.70
2018-12-25T09:39:34.019Z,16.60
2018-12-25T09:42:02.429Z,15.60
2018-12-25T09:44:30.388Z,15.60
2018-12-25T09:46:58.878Z,16.30
2018-12-25T09:49:27.122Z,16.10
2018-12-25T09:51:55.625Z,16.40
2018-12-25T09:54:24.168Z,15.90
2018-12-25T09:56:52.616Z,16.60
2018-12-25T09:59:21.573Z,17.20
2018-12-25T10:01:49.593Z,16.80
2018-12-25T10:04:17.758Z,16.80
2018-12-25T10:06:46.102Z,16.50
2018-12-25T10:09:14.552Z,18.10
2018-12-25T10:11:44.564Z,17.90
2018-12-25T10:14:13.138Z,17.20
2018-12-25T10:16:41.505Z,18.10
2018-12-25T10:19:10.027Z,17.50
2018-12-25T10:21:38.409Z,17.00
2018-12-25T10:24:06.769Z,16.90
2018-12-25T10:26:35.335Z,16.50
2018-12-25T10:29:03.816Z,16.50
2018-12-25T10:31:32.297Z,16.80
2018-12-25T10:34:00.766Z,18.60
2018-12-25T10:36:29.360Z,19.10
2018-12-25T10:38:58.047Z,17.50
2018-12-25T10:41:27.064Z,16.60
2018-12-25T10:43:55.519Z,16.30
2018-12-25T10:46:24.000Z,17.20
2018-12-25T10:48:52.326Z,18.40
2018-12-25T10:51:20.792Z,17.10
2018-12-25T10:53:49.644Z,17.00
2018-12-25T10:56:18.278Z,17.60
2018-12-25T10:58:46.536Z,17.30
2018-12-25T11:01:19.898Z,16.60
2018-12-25T11:03:48.208Z,16.20
2018-12-25T11:06:16.600Z,16.30
2018-12-25T11:08:45.089Z,16.50
2018-12-25T11:11:13.718Z,16.00
2018-12-25T11:13:42.148Z,17.60
2018-12-25T11:16:10.601Z,18.20
2018-12-25T11:18:38.893Z,19.10
2018-12-25T11:21:07.438Z,20.00
2018-12-25T11:23:35.919Z,19.60
2018-12-25T11:26:04.239Z,20.30
2018-12-25T11:28:32.610Z,19.70
2018-12-25T11:31:01.738Z,19.80
2018-12-25T11:33:30.491Z,19.70
2018-12-25T11:35:58.975Z,18.70
2018-12-25T11:38:27.515Z,19.20
2018-12-25T11:40:56.396Z,20.00
2018-12-25T11:43:24.793Z,19.60
2018-12-25T11:45:53.366Z,20.60
2018-12-25T11:48:21.846Z,20.50
2018-12-25T11:50:50.195Z,19.30
2018-12-25T11:53:18.605Z,19.20
2018-12-25T11:55:47.871Z,20.60
2018-12-25T11:58:16.326Z,21.10
2018-12-25T12:00:45.005Z,21.00
2018-12-25T12:03:13.549Z,19.70
2018-12-25T12:05:42.063Z,19.90
2018-12-25T12:08:10.564Z,19.40
2018-12-25T12:10:39.092Z,19.20
2018-12-25T12:13:07.500Z,17.80
2018-12-25T12:15:35.868Z,16.50
2018-12-25T12:18:04.432Z,16.00
2018-12-25T12:20:32.837Z,16.80
2018-12-25T12:23:01.507Z,17.10
2018-12-25T12:25:30.182Z,17.10
2018-12-25T12:27:58.593Z,16.20
2018-12-25T12:30:26.875Z,16.00
2018-12-25T12:32:55.715Z,16.20
2018-12-25T12:35:23.935Z,15.90
2018-12-25T12:37:52.797Z,15.20
2018-12-25T12:40:21.238Z,14.90
2018-12-25T12:42:49.599Z,14.90
2018-12-25T12:45:19.098Z,15.00
2018-12-25T12:47:47.630Z,14.50
2018-12-25T12:50:16.041Z,14.10
2018-12-25T12:52:45.674Z,14.10
2018-12-25T12:55:14.240Z,14.30
2018-12-25T12:57:42.644Z,13.90
2018-12-25T13:00:11.292Z,13.70
2018-12-25T13:02:40.023Z,13.90
2018-12-25T13:05:08.340Z,13.50
2018-12-25T13:07:37.967Z,13.70
2018-12-25T13:10:06.890Z,13.90
2018-12-25T13:12:35.476Z,14.30
2018-12-25T13:15:04.898Z,14.70
2018-12-25T13:17:33.390Z,15.60
2018-12-25T13:20:01.914Z,16.10
2018-12-25T13:22:30.095Z,16.30
2018-12-25T13:24:58.522Z,16.20
2018-12-25T13:27:27.044Z,15.20
2018-12-25T13:29:55.418Z,14.80
2018-12-25T13:32:23.693Z,15.00
2018-12-25T13:34:51.955Z,15.10
2018-12-25T13:37:20.618Z,14.90
2018-12-25T13:39:49.308Z,14.70
2018-12-25T13:42:17.673Z,14.90
2018-12-25T13:44:46.184Z,14.90
2018-12-25T13:47:14.471Z,14.80
2018-12-25T13:49:42.759Z,14.90
2018-12-25T13:52:11.297Z,14.50
2018-12-25T13:54:39.879Z,14.50
2018-12-25T13:57:08.287Z,14.70
2018-12-25T13:59:36.635Z,14.60
2018-12-25T14:02:04.945Z,14.30
2018-12-25T14:04:33.391Z,14.30
2018-12-25T14:07:01.871Z,14.50
2018-12-25T14:09:30.305Z,14.70
2018-12-25T14:11:58.778Z,14.70
2018-12-25T14:14:27.153Z,14.40
2018-12-25T14:16:55.691Z,14.50
2018-12-25T14:19:24.117Z,14.00
2018-12-25T14:21:52.754Z,13.40
2018-12-25T14:24:21.441Z,13.60
2018-12-25T14:26:49.952Z,13.80
2018-12-25T14:29:18.623Z,13.80
2018-12-25T14:31:47.020Z,13.70
2018-12-25T14:34:16.539Z,13.30
2018-12-25T14:36:45.275Z,13.40
2018-12-25T14:39:13.689Z,13.20
2018-12-25T14:41:42.051Z,13.10
2018-12-25T14:44:10.446Z,12.90
2018-12-25T14:46:38.890Z,12.70
2018-12-25T14:49:07.205Z,12.70
2018-12-25T14:51:35.599Z,12.70
2018-12-25T14:54:04.114Z,12.40
2018-12-25T14:56:32.722Z,12.40
2018-12-25T14:59:01.293Z,12.70
2018-12-25T15:01:29.813Z,13.00
2018-12-25T15:03:58.103Z,12.90
2018-12-25T15:06:26.892Z,12.60
2018-12-25T15:08:55.440Z,12.30
2018-12-25T15:11:23.894Z,12.30
2018-12-25T15:13:52.290Z,12.10
2018-12-25T15:16:20.577Z,12.10
2018-12-25T15:18:48.932Z,12.20
2018-12-25T15:21:17.531Z,12.00
2018-12-25T15:23:45.815Z,12.10
2018-12-25T15:26:14.107Z,12.10
2018-12-25T15:28:42.559Z,12.10
2018-12-25T15:31:11.043Z,12.20
2018-12-25T15:33:39.611Z,12.00
2018-12-25T15:36:08.195Z,11.80
2018-12-25T15:38:36.784Z,11.70
2018-12-25T15:41:05.460Z,11.60
2018-12-25T15:43:34.287Z,11.70
2018-12-25T15:46:02.893Z,11.70
2018-12-25T15:48:31.144Z,11.60
2018-12-25T15:50:59.519Z,11.80
2018-12-25T15:53:27.999Z,11.70
2018-12-25T15:55:56.293Z,11.70
2018-12-25T15:58:24.979Z,11.50
2018-12-25T16:00:53.558Z,11.70
2018-12-25T16:03:21.925Z,11.70
2018-12-25T16:05:52.481Z,11.50
2018-12-25T16:08:20.724Z,11.40
2018-12-25T16:10:49.480Z,11.60
2018-12-25T16:13:18.045Z,11.70
2018-12-25T16:15:46.563Z,11.70
2018-12-25T16:18:15.071Z,11.80
2018-12-25T16:20:43.468Z,11.90
2018-12-25T16:23:11.929Z,11.70
2018-12-25T16:25:40.408Z,11.60
2018-12-25T16:28:08.777Z,11.80
2018-12-25T16:30:37.532Z,11.70
2018-12-25T16:33:05.704Z,11.60
2018-12-25T16:35:34.060Z,11.50
2018-12-25T16:38:02.992Z,11.40
2018-12-25T16:40:31.352Z,11.50
2018-12-25T16:42:59.928Z,11.40
2018-12-25T16:45:28.414Z,11.50
2018-12-25T16:47:58.632Z,11.40
2018-12-25T16:50:27.252Z,11.50
2018-12-25T16:52:56.574Z,11.40
2018-12-25T16:55:25.105Z,11.50
2018-12-25T16:57:53.650Z,11.30
2018-12-25T17:00:22.160Z,11.20
2018-12-25T17:02:51.917Z,11.40
2018-12-25T17:05:20.558Z,11.30
2018-12-25T17:07:49.239Z,11.30
2018-12-25T17:10:17.660Z,11.20
2018-12-25T17:12:46.022Z,11.30
2018-12-25T17:15:14.705Z,11.50
2018-12-25T17:17:43.373Z,11.60
2018-12-25T17:20:12.919Z,11.60
2018-12-25T17:22:41.458Z,11.50
2018-12-25T17:25:09.974Z,11.50
2018-12-25T17:27:38.649Z,11.50
2018-12-25T17:30:08.179Z,11.60
2018-12-25T17:32:36.637Z,11.40
2018-12-25T17:35:05.412Z,11.50
2018-12-25T17:37:33.963Z,11.60
2018-12-25T17:40:02.310Z,11.50
2018-12-25T17:42:30.935Z,11.40
2018-12-25T17:44:59.590Z,11.50
2018-12-25T17:47:28.101Z,11.70
2018-12-25T17:49:56.607Z,11.40
2018-12-25T17:52:25.164Z,11.40
2018-12-25T17:54:53.781Z,11.30
2018-12-25T17:57:22.167Z,11.20
2018-12-25T17:59:50.196Z,11.40
2018-12-25T18:02:18.515Z,11.40
2018-12-25T18:04:47.055Z,11.30
2018-12-25T18:07:15.484Z,11.40
2018-12-25T18:09:43.762Z,11.40
2018-12-25T18:12:12.189Z,11.30
2018-12-25T18:14:41.039Z,11.30
2018-12-25T18:17:09.831Z,11.30
2018-12-25T18:19:38.758Z,11.60
2018-12-25T18:22:07.667Z,11.40
2018-12-25T18:24:35.873Z,11.60
2018-12-25T18:27:04.727Z,11.40
2018-12-25T18:29:33.394Z,11.40
2018-12-25T18:32:01.804Z,11.50
2018-12-25T18:34:30.149Z,11.40
2018-12-25T18:36:58.739Z,11.30
2018-12-25T18:39:27.147Z,11.30
2018-12-25T18:41:55.613Z,11.30
2018-12-25T18:44:24.174Z,11.30
2018-12-25T18:46:52.654Z,11.40
2018-12-25T18:49:21.328Z,11.60
2018-12-25T18:51:49.820Z,11.50
2018-12-25T18:54:18.199Z,11.50
2018-12-25T18:56:46.726Z,11.40
2018-12-25T18:59:15.212Z,11.50
2018-12-25T19:01:43.640Z,11.60
2018-12-25T19:04:12.313Z,11.60
2018-12-25T19:06:41.011Z,11.60
2018-12-25T19:09:09.490Z,11.50
2018-12-25T19:11:40.157Z,11.70
2018-12-25T19:14:08.806Z,11.70
2018-12-25T19:16:37.328Z,11.70
2018-12-25T19:19:05.736Z,11.40
2018-12-25T19:21:34.248Z,11.30
2018-12-25T19:24:02.872Z,11.40
2018-12-25T19:26:32.288Z,11.60
2018-12-25T19:29:00.543Z,11.40
2018-12-25T19:31:28.809Z,11.70
2018-12-25T19:33:57.469Z,11.60
2018-12-25T19:36:25.891Z,11.40
2018-12-25T19:38:54.156Z,11.50
2018-12-25T19:41:22.710Z,11.50
2018-12-25T19:43:51.230Z,11.40
2018-12-25T19:46:19.357Z,11.20
2018-12-25T19:48:47.851Z,11.30
2018-12-25T19:51:16.320Z,11.30
2018-12-25T19:53:44.733Z,11.30
2018-12-25T19:56:13.168Z,11.10
2018-12-25T19:58:41.763Z,11.10
2018-12-25T20:01:10.283Z,11.30
2018-12-25T20:03:47.226Z,11.20
2018-12-25T20:06:55.843Z,11.10
2018-12-25T20:10:23.715Z,11.10
2018-12-25T20:13:42.681Z,11.20
2018-12-25T20:16:49.206Z,11.00
2018-12-25T20:19:33.507Z,11.00
2018-12-25T20:22:37.827Z,11.00
2018-12-25T20:25:37.536Z,10.90
2018-12-25T20:28:45.890Z,11.00
2018-12-25T20:31:51.486Z,11.20
2018-12-25T20:34:41.281Z,11.30
2018-12-25T20:37:53.897Z,11.10
2018-12-25T20:41:00.981Z,11.10
2018-12-25T20:44:21.898Z,11.00
2018-12-25T20:47:31.853Z,11.10
2018-12-25T20:50:54.089Z,11.30
2018-12-25T20:54:03.627Z,11.10
2018-12-25T20:56:55.149Z,11.00
2018-12-25T21:00:07.762Z,11.00
2018-12-25T21:03:35.636Z,11.20
2018-12-25T21:07:01.050Z,11.20
2018-12-25T21:10:18.273Z,11.00
2018-12-25T21:13:33.660Z,11.00
2018-12-25T21:16:39.203Z,11.20
2018-12-25T21:19:40.146Z,11.10
2018-12-25T21:22:25.227Z,11.40
2018-12-25T21:25:29.840Z,11.70
2018-12-25T21:27:56.887Z,11.40
2018-12-25T21:30:26.167Z,11.50
2018-12-25T21:32:54.772Z,11.40
2018-12-25T21:35:24.832Z,11.10
2018-12-25T21:37:54.606Z,10.80
2018-12-25T21:40:23.292Z,10.80
2018-12-25T21:42:52.699Z,11.00
2018-12-25T21:45:21.107Z,11.10
2018-12-25T21:47:49.587Z,11.10
2018-12-25T21:50:18.230Z,11.00
2018-12-25T21:52:46.839Z,10.80
2018-12-25T21:55:18.873Z,10.80
2018-12-25T21:57:46.724Z,10.60
2018-12-25T22:00:17.194Z,10.80
2018-12-25T22:02:45.853Z,10.70
2018-12-25T22:05:14.159Z,10.50
2018-12-25T22:07:42.554Z,10.60
2018-12-25T22:10:11.091Z,10.60
2018-12-25T22:12:39.557Z,10.70
2018-12-25T22:15:08.692Z,10.70
2018-12-25T22:17:37.371Z,10.60
2018-12-25T22:20:18.682Z,10.70
2018-12-25T22:22:47.045Z,10.70
2018-12-25T22:25:15.436Z,10.70
2018-12-25T22:27:43.820Z,10.60
2018-12-25T22:30:12.143Z,10.70
2018-12-25T22:32:40.750Z,10.60
2018-12-25T22:35:09.153Z,10.70
2018-12-25T22:37:37.689Z,10.70
2018-12-25T22:40:06.271Z,10.70
2018-12-25T22:42:34.665Z,10.80
2018-12-25T22:45:03.253Z,10.70
2018-12-25T22:47:31.744Z,10.70
2018-12-25T22:50:00.158Z,10.60
2018-12-25T22:52:28.468Z,10.60
2018-12-25T22:54:56.768Z,10.60
2018-12-25T22:57:25.136Z,10.60
2018-12-25T22:59:53.705Z,10.60
2018-12-25T23:02:22.121Z,10.40
2018-12-25T23:04:50.380Z,10.50
2018-12-25T23:07:18.735Z,10.60
2018-12-25T23:09:47.219Z,10.70
2018-12-25T23:12:15.535Z,10.90
2018-12-25T23:14:43.865Z,10.70
2018-12-25T23:17:12.083Z,10.60
2018-12-25T23:19:40.626Z,10.60
2018-12-25T23:22:09.036Z,10.40
2018-12-25T23:24:37.312Z,10.50
2018-12-25T23:27:05.694Z,10.50
2018-12-25T23:29:34.194Z,10.50
2018-12-25T23:32:02.755Z,10.50
2018-12-25T23:34:31.241Z,10.60
2018-12-25T23:36:59.582Z,10.60
2018-12-25T23:39:28.162Z,10.40
2018-12-25T23:41:56.582Z,10.40
2018-12-25T23:44:24.928Z,10.40
2018-12-25T23:46:53.128Z,10.40
2018-12-25T23:49:21.574Z,10.40
2018-12-25T23:51:50.067Z,10.40
2018-12-25T23:54:18.637Z,10.40
2018-12-25T23:56:47.225Z,10.40
2018-12-25T23:59:15.634Z,10.30
